sensor_id;sensor_type;location;lat;lon;timestamp;temperature;humidity
46492;DHT22;32206;51.446;6.792;2022-11-03T00:00:07;12.10;1.00
46492;DHT22;32206;51.446;6.792;2022-11-03T00:02:33;11.90;1.00
46492;DHT22;32206;51.446;6.792;2022-11-03T00:04:59;11.90;1.00
46492;DHT22;32206;51.446;6.792;2022-11-03T00:07:44;11.90;1.00
46492;DHT22;32206;51.446;6.792;2022-11-03T00:10:10;12.20;1.00
46492;DHT22;32206;51.446;6.792;2022-11-03T00:12:35;11.90;1.00
46492;DHT22;32206;51.446;6.792;2022-11-03T00:15:01;11.90;1.00
46492;DHT22;32206;51.446;6.792;2022-11-03T00:17:26;11.90;1.00
46492;DHT22;32206;51.446;6.792;2022-11-03T00:19:52;11.90;1.00
46492;DHT22;32206;51.446;6.792;2022-11-03T00:22:17;11.90;1.00
46492;DHT22;32206;51.446;6.792;2022-11-03T00:24:43;12.10;1.00
46492;DHT22;32206;51.446;6.792;2022-11-03T00:27:09;11.90;1.00
46492;DHT22;32206;51.446;6.792;2022-11-03T00:29:34;11.90;1.00
46492;DHT22;32206;51.446;6.792;2022-11-03T00:32:00;12.00;1.00
46492;DHT22;32206;51.446;6.792;2022-11-03T00:34:25;11.90;1.00
46492;DHT22;32206;51.446;6.792;2022-11-03T00:36:51;12.00;1.00
46492;DHT22;32206;51.446;6.792;2022-11-03T00:39:16;11.90;1.00
46492;DHT22;32206;51.446;6.792;2022-11-03T00:41:42;11.90;1.00
46492;DHT22;32206;51.446;6.792;2022-11-03T00:44:08;11.90;1.00
46492;DHT22;32206;51.446;6.792;2022-11-03T00:46:35;11.90;1.00
46492;DHT22;32206;51.446;6.792;2022-11-03T00:49:01;11.90;1.00
46492;DHT22;32206;51.446;6.792;2022-11-03T00:51:28;11.90;1.00
46492;DHT22;32206;51.446;6.792;2022-11-03T00:54:02;11.90;1.00
46492;DHT22;32206;51.446;6.792;2022-11-03T00:56:36;12.10;1.00
46492;DHT22;32206;51.446;6.792;2022-11-03T00:59:03;11.90;1.00
46492;DHT22;32206;51.446;6.792;2022-11-03T01:01:35;11.90;1.00
46492;DHT22;32206;51.446;6.792;2022-11-03T01:04:01;12.00;1.00
46492;DHT22;32206;51.446;6.792;2022-11-03T01:06:51;11.90;1.00
46492;DHT22;32206;51.446;6.792;2022-11-03T01:11:57;11.90;1.00
46492;DHT22;32206;51.446;6.792;2022-11-03T01:14:29;11.90;1.00
46492;DHT22;32206;51.446;6.792;2022-11-03T01:16:55;11.90;1.00
46492;DHT22;32206;51.446;6.792;2022-11-03T01:19:21;11.90;1.00
46492;DHT22;32206;51.446;6.792;2022-11-03T01:21:48;11.80;1.00
46492;DHT22;32206;51.446;6.792;2022-11-03T01:24:13;11.80;1.00
46492;DHT22;32206;51.446;6.792;2022-11-03T01:26:39;11.90;1.00
46492;DHT22;32206;51.446;6.792;2022-11-03T01:29:05;11.80;1.00
46492;DHT22;32206;51.446;6.792;2022-11-03T01:31:30;11.80;1.00
46492;DHT22;32206;51.446;6.792;2022-11-03T01:33:56;11.80;1.00
46492;DHT22;32206;51.446;6.792;2022-11-03T01:36:22;12.20;1.00
46492;DHT22;32206;51.446;6.792;2022-11-03T01:38:48;11.80;1.00
46492;DHT22;32206;51.446;6.792;2022-11-03T01:41:17;11.80;1.00
46492;DHT22;32206;51.446;6.792;2022-11-03T01:43:50;11.80;1.00
46492;DHT22;32206;51.446;6.792;2022-11-03T01:46:25;11.70;1.00
46492;DHT22;32206;51.446;6.792;2022-11-03T01:49:07;11.70;1.00
46492;DHT22;32206;51.446;6.792;2022-11-03T01:51:36;11.60;1.00
46492;DHT22;32206;51.446;6.792;2022-11-03T01:54:06;11.60;2.60
46492;DHT22;32206;51.446;6.792;2022-11-03T01:56:34;11.80;3.70
46492;DHT22;32206;51.446;6.792;2022-11-03T01:59:02;11.60;6.00
46492;DHT22;32206;51.446;6.792;2022-11-03T02:01:29;11.60;6.50
46492;DHT22;32206;51.446;6.792;2022-11-03T02:04:01;11.50;4.50
46492;DHT22;32206;51.446;6.792;2022-11-03T02:06:29;11.60;7.50
46492;DHT22;32206;51.446;6.792;2022-11-03T02:08:57;11.60;8.00
46492;DHT22;32206;51.446;6.792;2022-11-03T02:11:23;11.60;8.80
46492;DHT22;32206;51.446;6.792;2022-11-03T02:14:14;11.60;5.80
46492;DHT22;32206;51.446;6.792;2022-11-03T02:16:43;11.40;7.90
46492;DHT22;32206;51.446;6.792;2022-11-03T02:19:26;11.60;7.90
46492;DHT22;32206;51.446;6.792;2022-11-03T02:24:52;11.60;10.50
46492;DHT22;32206;51.446;6.792;2022-11-03T02:27:21;11.60;13.00
46492;DHT22;32206;51.446;6.792;2022-11-03T02:29:47;11.50;14.40
46492;DHT22;32206;51.446;6.792;2022-11-03T02:34:46;11.50;21.00
46492;DHT22;32206;51.446;6.792;2022-11-03T02:37:17;11.90;23.40
46492;DHT22;32206;51.446;6.792;2022-11-03T02:39:53;11.50;25.20
46492;DHT22;32206;51.446;6.792;2022-11-03T02:42:23;11.50;27.50
46492;DHT22;32206;51.446;6.792;2022-11-03T02:44:51;11.50;23.90
46492;DHT22;32206;51.446;6.792;2022-11-03T02:47:18;11.50;24.50
46492;DHT22;32206;51.446;6.792;2022-11-03T02:49:46;11.70;27.90
46492;DHT22;32206;51.446;6.792;2022-11-03T02:52:39;11.90;22.70
46492;DHT22;32206;51.446;6.792;2022-11-03T02:55:13;11.60;22.80
46492;DHT22;32206;51.446;6.792;2022-11-03T02:57:52;11.60;25.30
46492;DHT22;32206;51.446;6.792;2022-11-03T03:00:20;11.60;25.10
46492;DHT22;32206;51.446;6.792;2022-11-03T03:03:00;11.70;26.40
46492;DHT22;32206;51.446;6.792;2022-11-03T03:05:30;11.70;26.90
46492;DHT22;32206;51.446;6.792;2022-11-03T03:08:04;11.60;28.70
46492;DHT22;32206;51.446;6.792;2022-11-03T03:10:38;11.70;26.90
46492;DHT22;32206;51.446;6.792;2022-11-03T03:13:06;11.70;26.60
46492;DHT22;32206;51.446;6.792;2022-11-03T03:15:56;11.70;28.10
46492;DHT22;32206;51.446;6.792;2022-11-03T03:21:16;11.70;32.10
46492;DHT22;32206;51.446;6.792;2022-11-03T03:24:07;11.60;35.20
46492;DHT22;32206;51.446;6.792;2022-11-03T03:26:40;11.70;33.30
46492;DHT22;32206;51.446;6.792;2022-11-03T03:29:14;11.70;34.30
46492;DHT22;32206;51.446;6.792;2022-11-03T03:31:45;11.70;39.00
46492;DHT22;32206;51.446;6.792;2022-11-03T03:34:14;11.70;37.20
46492;DHT22;32206;51.446;6.792;2022-11-03T03:36:42;11.70;35.10
46492;DHT22;32206;51.446;6.792;2022-11-03T03:39:10;11.70;36.40
46492;DHT22;32206;51.446;6.792;2022-11-03T03:41:37;11.70;34.40
46492;DHT22;32206;51.446;6.792;2022-11-03T03:44:06;11.70;33.70
46492;DHT22;32206;51.446;6.792;2022-11-03T03:46:37;11.70;38.60
46492;DHT22;32206;51.446;6.792;2022-11-03T03:49:04;11.80;33.80
46492;DHT22;32206;51.446;6.792;2022-11-03T03:51:31;11.80;33.80
46492;DHT22;32206;51.446;6.792;2022-11-03T03:53:57;11.90;36.50
46492;DHT22;32206;51.446;6.792;2022-11-03T03:56:27;11.80;35.70
46492;DHT22;32206;51.446;6.792;2022-11-03T03:58:54;11.80;37.70
46492;DHT22;32206;51.446;6.792;2022-11-03T04:01:20;11.80;35.80
46492;DHT22;32206;51.446;6.792;2022-11-03T04:03:45;11.80;31.40
46492;DHT22;32206;51.446;6.792;2022-11-03T04:06:11;11.90;34.40
46492;DHT22;32206;51.446;6.792;2022-11-03T04:08:36;12.10;34.30
46492;DHT22;32206;51.446;6.792;2022-11-03T04:11:02;11.90;37.00
46492;DHT22;32206;51.446;6.792;2022-11-03T04:13:46;11.90;35.70
46492;DHT22;32206;51.446;6.792;2022-11-03T04:16:30;11.90;38.40
46492;DHT22;32206;51.446;6.792;2022-11-03T04:19:14;12.00;40.80
46492;DHT22;32206;51.446;6.792;2022-11-03T04:21:58;11.80;44.10
46492;DHT22;32206;51.446;6.792;2022-11-03T04:24:43;11.90;45.50
46492;DHT22;32206;51.446;6.792;2022-11-03T04:29:40;11.80;49.50
46492;DHT22;32206;51.446;6.792;2022-11-03T04:32:15;11.80;49.60
46492;DHT22;32206;51.446;6.792;2022-11-03T04:34:41;11.90;49.40
46492;DHT22;32206;51.446;6.792;2022-11-03T04:37:13;11.80;51.70
46492;DHT22;32206;51.446;6.792;2022-11-03T04:39:39;11.90;49.70
46492;DHT22;32206;51.446;6.792;2022-11-03T04:42:16;11.90;52.30
46492;DHT22;32206;51.446;6.792;2022-11-03T04:44:42;11.90;52.80
46492;DHT22;32206;51.446;6.792;2022-11-03T04:47:12;11.80;54.60
46492;DHT22;32206;51.446;6.792;2022-11-03T04:49:38;11.80;56.20
46492;DHT22;32206;51.446;6.792;2022-11-03T04:52:19;12.10;56.20
46492;DHT22;32206;51.446;6.792;2022-11-03T04:54:47;11.80;57.30
46492;DHT22;32206;51.446;6.792;2022-11-03T04:57:15;11.80;60.30
46492;DHT22;32206;51.446;6.792;2022-11-03T04:59:43;11.80;57.60
46492;DHT22;32206;51.446;6.792;2022-11-03T05:02:12;11.80;58.90
46492;DHT22;32206;51.446;6.792;2022-11-03T05:04:39;11.90;57.00
46492;DHT22;32206;51.446;6.792;2022-11-03T05:07:20;11.90;55.90
46492;DHT22;32206;51.446;6.792;2022-11-03T05:09:46;11.80;59.00
46492;DHT22;32206;51.446;6.792;2022-11-03T05:12:12;11.80;57.90
46492;DHT22;32206;51.446;6.792;2022-11-03T05:14:38;11.80;57.10
46492;DHT22;32206;51.446;6.792;2022-11-03T05:17:21;11.80;58.80
46492;DHT22;32206;51.446;6.792;2022-11-03T05:19:54;11.80;58.20
46492;DHT22;32206;51.446;6.792;2022-11-03T05:22:21;11.80;62.10
46492;DHT22;32206;51.446;6.792;2022-11-03T05:24:59;11.90;57.00
46492;DHT22;32206;51.446;6.792;2022-11-03T05:27:25;11.90;57.30
46492;DHT22;32206;51.446;6.792;2022-11-03T05:29:52;11.90;53.90
46492;DHT22;32206;51.446;6.792;2022-11-03T05:32:26;11.90;56.90
46492;DHT22;32206;51.446;6.792;2022-11-03T05:34:54;11.90;56.40
46492;DHT22;32206;51.446;6.792;2022-11-03T05:37:30;12.00;53.50
46492;DHT22;32206;51.446;6.792;2022-11-03T05:40:02;12.00;52.50
46492;DHT22;32206;51.446;6.792;2022-11-03T05:42:35;12.00;55.60
46492;DHT22;32206;51.446;6.792;2022-11-03T05:45:15;11.90;54.10
46492;DHT22;32206;51.446;6.792;2022-11-03T05:47:45;12.00;54.20
46492;DHT22;32206;51.446;6.792;2022-11-03T05:50:22;12.00;54.00
46492;DHT22;32206;51.446;6.792;2022-11-03T05:52:55;12.00;50.60
46492;DHT22;32206;51.446;6.792;2022-11-03T05:55:30;12.00;49.10
46492;DHT22;32206;51.446;6.792;2022-11-03T05:58:25;12.00;51.80
46492;DHT22;32206;51.446;6.792;2022-11-03T06:00:52;12.00;47.80
46492;DHT22;32206;51.446;6.792;2022-11-03T06:03:24;12.30;46.10
46492;DHT22;32206;51.446;6.792;2022-11-03T06:05:52;12.00;53.80
46492;DHT22;32206;51.446;6.792;2022-11-03T06:08:20;12.20;44.40
46492;DHT22;32206;51.446;6.792;2022-11-03T06:10:51;12.10;45.90
46492;DHT22;32206;51.446;6.792;2022-11-03T06:13:21;12.10;42.60
46492;DHT22;32206;51.446;6.792;2022-11-03T06:15:52;12.20;39.70
46492;DHT22;32206;51.446;6.792;2022-11-03T06:18:21;12.10;43.40
46492;DHT22;32206;51.446;6.792;2022-11-03T06:21:01;12.10;41.30
46492;DHT22;32206;51.446;6.792;2022-11-03T06:23:27;12.10;39.30
46492;DHT22;32206;51.446;6.792;2022-11-03T06:25:54;12.20;40.30
46492;DHT22;32206;51.446;6.792;2022-11-03T06:28:24;12.10;39.40
46492;DHT22;32206;51.446;6.792;2022-11-03T06:30:51;12.10;40.50
46492;DHT22;32206;51.446;6.792;2022-11-03T06:33:26;12.10;41.30
46492;DHT22;32206;51.446;6.792;2022-11-03T06:36:10;12.10;38.90
46492;DHT22;32206;51.446;6.792;2022-11-03T06:38:38;12.10;34.00
46492;DHT22;32206;51.446;6.792;2022-11-03T06:41:03;12.20;38.90
46492;DHT22;32206;51.446;6.792;2022-11-03T06:43:42;12.20;33.10
46492;DHT22;32206;51.446;6.792;2022-11-03T06:46:24;12.20;32.80
46492;DHT22;32206;51.446;6.792;2022-11-03T06:48:52;12.30;35.70
46492;DHT22;32206;51.446;6.792;2022-11-03T06:51:23;12.10;36.50
46492;DHT22;32206;51.446;6.792;2022-11-03T06:53:52;12.20;35.50
46492;DHT22;32206;51.446;6.792;2022-11-03T06:56:22;12.20;30.40
46492;DHT22;32206;51.446;6.792;2022-11-03T06:58:51;12.20;30.30
46492;DHT22;32206;51.446;6.792;2022-11-03T07:01:30;12.30;35.10
46492;DHT22;32206;51.446;6.792;2022-11-03T07:04:02;12.30;26.40
46492;DHT22;32206;51.446;6.792;2022-11-03T07:06:30;12.30;24.90
46492;DHT22;32206;51.446;6.792;2022-11-03T07:09:00;12.40;23.60
46492;DHT22;32206;51.446;6.792;2022-11-03T07:11:29;12.40;20.80
46492;DHT22;32206;51.446;6.792;2022-11-03T07:16:45;12.40;15.80
46492;DHT22;32206;51.446;6.792;2022-11-03T07:19:26;12.40;20.50
46492;DHT22;32206;51.446;6.792;2022-11-03T07:24:41;12.40;23.60
46492;DHT22;32206;51.446;6.792;2022-11-03T07:29:47;12.60;16.30
46492;DHT22;32206;51.446;6.792;2022-11-03T07:32:24;12.80;15.10
46492;DHT22;32206;51.446;6.792;2022-11-03T07:34:52;12.60;16.40
46492;DHT22;32206;51.446;6.792;2022-11-03T07:37:19;12.60;16.10
46492;DHT22;32206;51.446;6.792;2022-11-03T07:39:46;12.60;16.60
46492;DHT22;32206;51.446;6.792;2022-11-03T07:42:21;12.80;14.40
46492;DHT22;32206;51.446;6.792;2022-11-03T07:44:48;12.70;15.60
46492;DHT22;32206;51.446;6.792;2022-11-03T07:47:18;12.90;16.60
46492;DHT22;32206;51.446;6.792;2022-11-03T07:49:45;12.80;12.00
46492;DHT22;32206;51.446;6.792;2022-11-03T07:52:13;13.00;4.00
46492;DHT22;32206;51.446;6.792;2022-11-03T07:54:40;12.90;5.80
46492;DHT22;32206;51.446;6.792;2022-11-03T07:59:41;13.10;1.00
46492;DHT22;32206;51.446;6.792;2022-11-03T08:04:50;13.10;1.00
46492;DHT22;32206;51.446;6.792;2022-11-03T08:07:16;13.20;1.00
46492;DHT22;32206;51.446;6.792;2022-11-03T08:09:41;13.20;1.00
46492;DHT22;32206;51.446;6.792;2022-11-03T08:12:07;13.20;1.00
46492;DHT22;32206;51.446;6.792;2022-11-03T08:14:33;13.20;1.00
46492;DHT22;32206;51.446;6.792;2022-11-03T08:16:58;13.10;1.00
46492;DHT22;32206;51.446;6.792;2022-11-03T08:19:24;13.20;1.00
46492;DHT22;32206;51.446;6.792;2022-11-03T08:21:49;13.20;1.00
46492;DHT22;32206;51.446;6.792;2022-11-03T08:24:15;13.50;1.00
46492;DHT22;32206;51.446;6.792;2022-11-03T08:26:40;13.20;1.00
46492;DHT22;32206;51.446;6.792;2022-11-03T08:29:06;13.20;1.00
46492;DHT22;32206;51.446;6.792;2022-11-03T08:31:32;13.20;1.00
46492;DHT22;32206;51.446;6.792;2022-11-03T08:33:57;13.20;1.00
46492;DHT22;32206;51.446;6.792;2022-11-03T08:36:23;13.20;1.00
46492;DHT22;32206;51.446;6.792;2022-11-03T08:38:49;13.30;1.00
46492;DHT22;32206;51.446;6.792;2022-11-03T08:41:15;13.50;1.00
46492;DHT22;32206;51.446;6.792;2022-11-03T08:43:40;13.30;1.00
46492;DHT22;32206;51.446;6.792;2022-11-03T08:46:06;13.30;1.00
46492;DHT22;32206;51.446;6.792;2022-11-03T08:48:32;13.30;1.00
46492;DHT22;32206;51.446;6.792;2022-11-03T08:50:57;13.60;1.00
46492;DHT22;32206;51.446;6.792;2022-11-03T08:53:24;13.40;1.00
46492;DHT22;32206;51.446;6.792;2022-11-03T08:55:51;13.60;1.00
46492;DHT22;32206;51.446;6.792;2022-11-03T08:58:16;13.50;1.00
46492;DHT22;32206;51.446;6.792;2022-11-03T09:00:42;13.40;1.00
46492;DHT22;32206;51.446;6.792;2022-11-03T09:03:08;13.40;1.00
46492;DHT22;32206;51.446;6.792;2022-11-03T09:05:34;13.50;1.00
46492;DHT22;32206;51.446;6.792;2022-11-03T09:07:59;13.50;1.00
46492;DHT22;32206;51.446;6.792;2022-11-03T09:10:25;13.50;1.00
46492;DHT22;32206;51.446;6.792;2022-11-03T09:12:51;13.80;1.00
46492;DHT22;32206;51.446;6.792;2022-11-03T09:15:17;13.50;1.00
46492;DHT22;32206;51.446;6.792;2022-11-03T09:17:43;13.50;1.00
46492;DHT22;32206;51.446;6.792;2022-11-03T09:20:09;13.70;1.00
46492;DHT22;32206;51.446;6.792;2022-11-03T09:22:35;13.60;1.00
46492;DHT22;32206;51.446;6.792;2022-11-03T09:25:01;13.70;1.00
46492;DHT22;32206;51.446;6.792;2022-11-03T09:27:26;13.70;1.00
46492;DHT22;32206;51.446;6.792;2022-11-03T09:29:52;13.80;1.00
46492;DHT22;32206;51.446;6.792;2022-11-03T09:32:17;13.90;1.00
46492;DHT22;32206;51.446;6.792;2022-11-03T09:34:43;13.80;1.00
46492;DHT22;32206;51.446;6.792;2022-11-03T09:37:09;13.80;1.00
46492;DHT22;32206;51.446;6.792;2022-11-03T09:39:35;13.90;1.00
46492;DHT22;32206;51.446;6.792;2022-11-03T09:42:01;14.00;1.00
46492;DHT22;32206;51.446;6.792;2022-11-03T09:44:31;14.10;1.00
46492;DHT22;32206;51.446;6.792;2022-11-03T09:46:58;14.30;1.00
46492;DHT22;32206;51.446;6.792;2022-11-03T09:49:24;14.30;1.00
46492;DHT22;32206;51.446;6.792;2022-11-03T09:51:50;14.30;1.00
46492;DHT22;32206;51.446;6.792;2022-11-03T09:54:16;14.10;1.00
46492;DHT22;32206;51.446;6.792;2022-11-03T09:56:42;14.30;1.00
46492;DHT22;32206;51.446;6.792;2022-11-03T09:59:17;14.30;1.00
46492;DHT22;32206;51.446;6.792;2022-11-03T10:01:45;14.20;1.00
46492;DHT22;32206;51.446;6.792;2022-11-03T10:04:17;14.30;1.00
46492;DHT22;32206;51.446;6.792;2022-11-03T10:06:44;14.30;1.00
46492;DHT22;32206;51.446;6.792;2022-11-03T10:09:15;14.40;1.00
46492;DHT22;32206;51.446;6.792;2022-11-03T10:11:42;14.40;1.00
46492;DHT22;32206;51.446;6.792;2022-11-03T10:14:11;14.40;1.00
46492;DHT22;32206;51.446;6.792;2022-11-03T10:16:39;14.40;1.00
46492;DHT22;32206;51.446;6.792;2022-11-03T10:19:08;14.50;1.00
46492;DHT22;32206;51.446;6.792;2022-11-03T10:21:36;14.50;1.00
46492;DHT22;32206;51.446;6.792;2022-11-03T10:24:03;14.60;1.00
46492;DHT22;32206;51.446;6.792;2022-11-03T10:26:28;14.70;1.00
46492;DHT22;32206;51.446;6.792;2022-11-03T10:29:06;14.80;1.00
46492;DHT22;32206;51.446;6.792;2022-11-03T10:31:37;14.70;1.00
46492;DHT22;32206;51.446;6.792;2022-11-03T10:34:05;14.70;1.00
46492;DHT22;32206;51.446;6.792;2022-11-03T10:36:32;14.70;1.00
46492;DHT22;32206;51.446;6.792;2022-11-03T10:38:58;14.70;1.00
46492;DHT22;32206;51.446;6.792;2022-11-03T10:41:30;14.80;1.00
46492;DHT22;32206;51.446;6.792;2022-11-03T10:46:39;14.80;1.00
46492;DHT22;32206;51.446;6.792;2022-11-03T10:49:13;14.80;1.00
46492;DHT22;32206;51.446;6.792;2022-11-03T10:51:40;14.90;1.00
46492;DHT22;32206;51.446;6.792;2022-11-03T10:54:10;15.00;1.00
46492;DHT22;32206;51.446;6.792;2022-11-03T10:56:37;15.00;1.00
46492;DHT22;32206;51.446;6.792;2022-11-03T10:59:03;15.10;1.00
46492;DHT22;32206;51.446;6.792;2022-11-03T11:01:29;15.30;99.90
46492;DHT22;32206;51.446;6.792;2022-11-03T11:03:54;15.10;99.90
46492;DHT22;32206;51.446;6.792;2022-11-03T11:06:24;15.30;99.90
46492;DHT22;32206;51.446;6.792;2022-11-03T11:08:59;15.40;99.90
46492;DHT22;32206;51.446;6.792;2022-11-03T11:11:25;15.50;99.90
46492;DHT22;32206;51.446;6.792;2022-11-03T11:16:56;15.70;99.90
46492;DHT22;32206;51.446;6.792;2022-11-03T11:19:23;15.90;94.60
46492;DHT22;32206;51.446;6.792;2022-11-03T11:29:57;16.30;99.90
46492;DHT22;32206;51.446;6.792;2022-11-03T11:35:08;16.90;1.00
46492;DHT22;32206;51.446;6.792;2022-11-03T11:37:36;17.10;99.90
46492;DHT22;32206;51.446;6.792;2022-11-03T11:40:12;16.90;1.00
46492;DHT22;32206;51.446;6.792;2022-11-03T11:48:29;16.60;99.90
46492;DHT22;32206;51.446;6.792;2022-11-03T11:50:56;16.90;1.00
46492;DHT22;32206;51.446;6.792;2022-11-03T11:53:23;17.50;99.90
46492;DHT22;32206;51.446;6.792;2022-11-03T11:56:00;17.40;99.90
46492;DHT22;32206;51.446;6.792;2022-11-03T11:58:42;17.20;96.80
46492;DHT22;32206;51.446;6.792;2022-11-03T12:01:31;17.20;1.00
46492;DHT22;32206;51.446;6.792;2022-11-03T12:04:00;16.70;99.90
46492;DHT22;32206;51.446;6.792;2022-11-03T12:06:35;16.50;99.90
46492;DHT22;32206;51.446;6.792;2022-11-03T12:14:33;16.40;1.00
46492;DHT22;32206;51.446;6.792;2022-11-03T12:19:45;16.00;1.00
46492;DHT22;32206;51.446;6.792;2022-11-03T12:24:53;15.90;52.20
46492;DHT22;32206;51.446;6.792;2022-11-03T12:29:59;15.90;99.90
46492;DHT22;32206;51.446;6.792;2022-11-03T12:32:25;15.90;99.90
46492;DHT22;32206;51.446;6.792;2022-11-03T12:34:51;15.80;99.90
46492;DHT22;32206;51.446;6.792;2022-11-03T12:37:19;16.10;99.90
46492;DHT22;32206;51.446;6.792;2022-11-03T12:39:44;16.20;1.00
46492;DHT22;32206;51.446;6.792;2022-11-03T12:42:10;16.90;99.90
46492;DHT22;32206;51.446;6.792;2022-11-03T12:44:35;17.30;99.90
46492;DHT22;32206;51.446;6.792;2022-11-03T12:47:01;17.60;99.90
46492;DHT22;32206;51.446;6.792;2022-11-03T12:49:27;17.90;99.90
46492;DHT22;32206;51.446;6.792;2022-11-03T12:51:53;17.70;99.90
46492;DHT22;32206;51.446;6.792;2022-11-03T12:54:19;17.10;1.00
46492;DHT22;32206;51.446;6.792;2022-11-03T12:56:46;17.10;99.90
46492;DHT22;32206;51.446;6.792;2022-11-03T12:59:11;16.70;99.90
46492;DHT22;32206;51.446;6.792;2022-11-03T13:01:37;16.50;95.80
46492;DHT22;32206;51.446;6.792;2022-11-03T13:04:03;16.30;1.00
46492;DHT22;32206;51.446;6.792;2022-11-03T13:06:30;16.20;1.00
46492;DHT22;32206;51.446;6.792;2022-11-03T13:08:56;16.10;99.90
46492;DHT22;32206;51.446;6.792;2022-11-03T13:11:21;16.10;99.90
46492;DHT22;32206;51.446;6.792;2022-11-03T13:14:05;16.00;99.90
46492;DHT22;32206;51.446;6.792;2022-11-03T13:16:31;15.90;99.90
46492;DHT22;32206;51.446;6.792;2022-11-03T13:18:56;15.80;99.90
46492;DHT22;32206;51.446;6.792;2022-11-03T13:21:22;15.70;99.90
46492;DHT22;32206;51.446;6.792;2022-11-03T13:23:48;15.70;99.90
46492;DHT22;32206;51.446;6.792;2022-11-03T13:26:13;15.70;99.90
46492;DHT22;32206;51.446;6.792;2022-11-03T13:28:39;15.70;99.90
46492;DHT22;32206;51.446;6.792;2022-11-03T13:31:05;15.70;99.90
46492;DHT22;32206;51.446;6.792;2022-11-03T13:33:31;15.70;99.90
46492;DHT22;32206;51.446;6.792;2022-11-03T13:35:56;15.70;99.90
46492;DHT22;32206;51.446;6.792;2022-11-03T13:38:22;15.60;99.90
46492;DHT22;32206;51.446;6.792;2022-11-03T13:40:47;15.60;99.90
46492;DHT22;32206;51.446;6.792;2022-11-03T13:43:13;15.60;99.90
46492;DHT22;32206;51.446;6.792;2022-11-03T13:45:39;15.60;99.90
46492;DHT22;32206;51.446;6.792;2022-11-03T13:48:04;15.60;99.90
46492;DHT22;32206;51.446;6.792;2022-11-03T13:50:30;15.60;99.90
46492;DHT22;32206;51.446;6.792;2022-11-03T13:52:55;15.90;99.90
46492;DHT22;32206;51.446;6.792;2022-11-03T13:55:21;15.70;99.90
46492;DHT22;32206;51.446;6.792;2022-11-03T13:57:47;15.70;99.90
46492;DHT22;32206;51.446;6.792;2022-11-03T14:00:13;15.50;99.90
46492;DHT22;32206;51.446;6.792;2022-11-03T14:02:41;15.50;99.90
46492;DHT22;32206;51.446;6.792;2022-11-03T14:05:07;15.50;99.90
46492;DHT22;32206;51.446;6.792;2022-11-03T14:07:34;15.40;99.90
46492;DHT22;32206;51.446;6.792;2022-11-03T14:09:59;15.30;99.90
46492;DHT22;32206;51.446;6.792;2022-11-03T14:12:25;15.30;99.90
46492;DHT22;32206;51.446;6.792;2022-11-03T14:15:01;15.30;99.90
46492;DHT22;32206;51.446;6.792;2022-11-03T14:17:27;15.20;99.90
46492;DHT22;32206;51.446;6.792;2022-11-03T14:19:53;15.20;1.00
46492;DHT22;32206;51.446;6.792;2022-11-03T14:22:19;15.10;99.90
46492;DHT22;32206;51.446;6.792;2022-11-03T14:24:45;15.10;1.00
46492;DHT22;32206;51.446;6.792;2022-11-03T14:27:11;15.10;99.90
46492;DHT22;32206;51.446;6.792;2022-11-03T14:29:37;15.20;1.00
46492;DHT22;32206;51.446;6.792;2022-11-03T14:32:03;15.10;1.00
46492;DHT22;32206;51.446;6.792;2022-11-03T14:34:29;15.00;1.00
46492;DHT22;32206;51.446;6.792;2022-11-03T14:36:55;15.00;1.00
46492;DHT22;32206;51.446;6.792;2022-11-03T14:39:20;15.00;1.00
46492;DHT22;32206;51.446;6.792;2022-11-03T14:41:46;14.80;1.00
46492;DHT22;32206;51.446;6.792;2022-11-03T14:44:30;14.90;1.00
46492;DHT22;32206;51.446;6.792;2022-11-03T14:46:56;14.90;1.00
46492;DHT22;32206;51.446;6.792;2022-11-03T14:49:22;14.90;1.00
46492;DHT22;32206;51.446;6.792;2022-11-03T14:51:47;14.80;1.00
46492;DHT22;32206;51.446;6.792;2022-11-03T14:54:13;14.80;1.00
46492;DHT22;32206;51.446;6.792;2022-11-03T14:56:38;14.80;1.00
46492;DHT22;32206;51.446;6.792;2022-11-03T14:59:04;14.90;1.00
46492;DHT22;32206;51.446;6.792;2022-11-03T15:01:30;14.70;1.00
46492;DHT22;32206;51.446;6.792;2022-11-03T15:03:55;14.60;1.00
46492;DHT22;32206;51.446;6.792;2022-11-03T15:06:21;14.30;1.00
46492;DHT22;32206;51.446;6.792;2022-11-03T15:08:46;14.40;1.00
46492;DHT22;32206;51.446;6.792;2022-11-03T15:11:12;14.40;1.00
46492;DHT22;32206;51.446;6.792;2022-11-03T15:13:38;14.30;1.00
46492;DHT22;32206;51.446;6.792;2022-11-03T15:16:04;14.40;1.00
46492;DHT22;32206;51.446;6.792;2022-11-03T15:18:30;14.10;17.00
46492;DHT22;32206;51.446;6.792;2022-11-03T15:20:56;14.10;21.00
46492;DHT22;32206;51.446;6.792;2022-11-03T15:23:21;13.90;27.10
46492;DHT22;32206;51.446;6.792;2022-11-03T15:25:47;13.70;39.70
46492;DHT22;32206;51.446;6.792;2022-11-03T15:28:13;13.60;61.00
46492;DHT22;32206;51.446;6.792;2022-11-03T15:30:38;13.50;69.90
46492;DHT22;32206;51.446;6.792;2022-11-03T15:33:04;13.40;71.30
46492;DHT22;32206;51.446;6.792;2022-11-03T15:35:30;13.50;73.70
46492;DHT22;32206;51.446;6.792;2022-11-03T15:37:55;13.40;78.80
46492;DHT22;32206;51.446;6.792;2022-11-03T15:40:24;13.20;79.60
46492;DHT22;32206;51.446;6.792;2022-11-03T15:42:50;13.20;86.60
46492;DHT22;32206;51.446;6.792;2022-11-03T15:45:16;13.20;88.80
46492;DHT22;32206;51.446;6.792;2022-11-03T15:47:41;13.00;91.70
46492;DHT22;32206;51.446;6.792;2022-11-03T15:50:08;12.90;92.40
46492;DHT22;32206;51.446;6.792;2022-11-03T15:52:34;12.90;94.00
46492;DHT22;32206;51.446;6.792;2022-11-03T15:55:00;12.90;94.00
46492;DHT22;32206;51.446;6.792;2022-11-03T15:57:28;12.80;94.90
46492;DHT22;32206;51.446;6.792;2022-11-03T15:59:54;12.80;94.80
46492;DHT22;32206;51.446;6.792;2022-11-03T16:02:20;12.70;96.20
46492;DHT22;32206;51.446;6.792;2022-11-03T16:04:45;12.60;96.60
46492;DHT22;32206;51.446;6.792;2022-11-03T16:07:11;12.60;99.00
46492;DHT22;32206;51.446;6.792;2022-11-03T16:09:37;12.50;99.20
46492;DHT22;32206;51.446;6.792;2022-11-03T16:12:02;12.40;99.20
46492;DHT22;32206;51.446;6.792;2022-11-03T16:14:28;12.50;99.90
46492;DHT22;32206;51.446;6.792;2022-11-03T16:16:54;12.50;99.90
46492;DHT22;32206;51.446;6.792;2022-11-03T16:19:19;12.40;99.90
46492;DHT22;32206;51.446;6.792;2022-11-03T16:21:45;12.40;99.90
46492;DHT22;32206;51.446;6.792;2022-11-03T16:24:10;12.40;99.90
46492;DHT22;32206;51.446;6.792;2022-11-03T16:26:36;12.40;99.90
46492;DHT22;32206;51.446;6.792;2022-11-03T16:29:02;12.40;99.90
46492;DHT22;32206;51.446;6.792;2022-11-03T16:31:27;12.40;99.90
46492;DHT22;32206;51.446;6.792;2022-11-03T16:33:53;12.30;99.90
46492;DHT22;32206;51.446;6.792;2022-11-03T16:36:19;12.30;99.90
46492;DHT22;32206;51.446;6.792;2022-11-03T16:38:45;12.20;99.90
46492;DHT22;32206;51.446;6.792;2022-11-03T16:41:10;12.30;99.90
46492;DHT22;32206;51.446;6.792;2022-11-03T16:43:36;12.30;99.90
46492;DHT22;32206;51.446;6.792;2022-11-03T16:46:02;12.20;99.90
46492;DHT22;32206;51.446;6.792;2022-11-03T16:48:28;12.20;99.90